sensor_id;sensor_type;location;lat;lon;timestamp;P1;durP1;ratioP1;P2;durP2;ratioP2
61905;SDS011;47863;55.766;37.672;2023-04-30T00:00:14;8.15;;;4.18;;
61905;SDS011;47863;55.766;37.672;2023-04-30T00:02:39;8.35;;;4.40;;
61905;SDS011;47863;55.766;37.672;2023-04-30T00:05:05;13.07;;;4.60;;
61905;SDS011;47863;55.766;37.672;2023-04-30T00:07:31;14.43;;;5.18;;
61905;SDS011;47863;55.766;37.672;2023-04-30T00:09:57;10.82;;;4.82;;
61905;SDS011;47863;55.766;37.672;2023-04-30T00:12:23;8.27;;;4.22;;
61905;SDS011;47863;55.766;37.672;2023-04-30T00:14:48;15.43;;;5.50;;
61905;SDS011;47863;55.766;37.672;2023-04-30T00:17:14;10.25;;;4.88;;
61905;SDS011;47863;55.766;37.672;2023-04-30T00:19:40;10.63;;;5.15;;
61905;SDS011;47863;55.766;37.672;2023-04-30T00:22:06;9.57;;;4.85;;
61905;SDS011;47863;55.766;37.672;2023-04-30T00:24:32;8.90;;;4.78;;
61905;SDS011;47863;55.766;37.672;2023-04-30T00:26:58;9.85;;;4.90;;
61905;SDS011;47863;55.766;37.672;2023-04-30T00:29:24;11.48;;;6.35;;
61905;SDS011;47863;55.766;37.672;2023-04-30T00:31:50;11.25;;;5.70;;
61905;SDS011;47863;55.766;37.672;2023-04-30T00:34:15;14.30;;;5.18;;
61905;SDS011;47863;55.766;37.672;2023-04-30T00:36:41;13.35;;;5.07;;
61905;SDS011;47863;55.766;37.672;2023-04-30T00:39:06;14.60;;;7.05;;
61905;SDS011;47863;55.766;37.672;2023-04-30T00:41:33;13.65;;;6.22;;
61905;SDS011;47863;55.766;37.672;2023-04-30T00:43:59;9.13;;;4.68;;
61905;SDS011;47863;55.766;37.672;2023-04-30T00:46:27;12.05;;;5.40;;
61905;SDS011;47863;55.766;37.672;2023-04-30T00:48:52;14.20;;;6.50;;
61905;SDS011;47863;55.766;37.672;2023-04-30T00:51:19;13.68;;;6.07;;
61905;SDS011;47863;55.766;37.672;2023-04-30T00:53:44;16.45;;;7.40;;
61905;SDS011;47863;55.766;37.672;2023-04-30T00:56:11;15.68;;;7.50;;
61905;SDS011;47863;55.766;37.672;2023-04-30T00:58:40;13.45;;;6.32;;
61905;SDS011;47863;55.766;37.672;2023-04-30T01:01:06;16.35;;;6.55;;
61905;SDS011;47863;55.766;37.672;2023-04-30T01:03:32;16.05;;;7.18;;
61905;SDS011;47863;55.766;37.672;2023-04-30T01:06:00;12.77;;;5.97;;
61905;SDS011;47863;55.766;37.672;2023-04-30T01:08:28;14.63;;;6.80;;
61905;SDS011;47863;55.766;37.672;2023-04-30T01:16:24;14.90;;;6.88;;
61905;SDS011;47863;55.766;37.672;2023-04-30T01:19:08;11.40;;;5.93;;
61905;SDS011;47863;55.766;37.672;2023-04-30T01:21:43;11.05;;;5.50;;
61905;SDS011;47863;55.766;37.672;2023-04-30T01:26:58;11.68;;;5.55;;
61905;SDS011;47863;55.766;37.672;2023-04-30T01:29:26;11.55;;;5.90;;
61905;SDS011;47863;55.766;37.672;2023-04-30T01:31:53;17.88;;;5.90;;
61905;SDS011;47863;55.766;37.672;2023-04-30T01:34:19;11.52;;;6.00;;
61905;SDS011;47863;55.766;37.672;2023-04-30T01:39:41;15.20;;;6.20;;
61905;SDS011;47863;55.766;37.672;2023-04-30T01:42:33;10.68;;;4.80;;
61905;SDS011;47863;55.766;37.672;2023-04-30T01:51:14;13.15;;;5.78;;
61905;SDS011;47863;55.766;37.672;2023-04-30T01:53:45;11.85;;;5.80;;
61905;SDS011;47863;55.766;37.672;2023-04-30T01:56:13;14.02;;;6.35;;
61905;SDS011;47863;55.766;37.672;2023-04-30T01:58:45;10.18;;;5.03;;
61905;SDS011;47863;55.766;37.672;2023-04-30T02:03:55;10.00;;;5.30;;
61905;SDS011;47863;55.766;37.672;2023-04-30T02:06:22;12.75;;;5.18;;
61905;SDS011;47863;55.766;37.672;2023-04-30T02:08:53;10.77;;;5.60;;
61905;SDS011;47863;55.766;37.672;2023-04-30T02:11:20;12.40;;;5.25;;
61905;SDS011;47863;55.766;37.672;2023-04-30T02:13:46;12.52;;;5.68;;
61905;SDS011;47863;55.766;37.672;2023-04-30T02:16:11;9.70;;;5.50;;
61905;SDS011;47863;55.766;37.672;2023-04-30T02:18:37;10.75;;;5.15;;
61905;SDS011;47863;55.766;37.672;2023-04-30T02:21:03;8.77;;;4.78;;
61905;SDS011;47863;55.766;37.672;2023-04-30T02:23:28;14.35;;;5.38;;
61905;SDS011;47863;55.766;37.672;2023-04-30T02:25:54;9.75;;;4.50;;
61905;SDS011;47863;55.766;37.672;2023-04-30T02:28:19;12.45;;;5.90;;
61905;SDS011;47863;55.766;37.672;2023-04-30T02:30:45;11.32;;;5.53;;
61905;SDS011;47863;55.766;37.672;2023-04-30T02:33:10;11.43;;;5.13;;
61905;SDS011;47863;55.766;37.672;2023-04-30T02:35:36;13.30;;;5.82;;
61905;SDS011;47863;55.766;37.672;2023-04-30T02:38:05;10.52;;;4.82;;
61905;SDS011;47863;55.766;37.672;2023-04-30T02:40:31;9.68;;;4.72;;
61905;SDS011;47863;55.766;37.672;2023-04-30T02:42:56;12.02;;;5.20;;
61905;SDS011;47863;55.766;37.672;2023-04-30T02:45:22;11.00;;;5.00;;
61905;SDS011;47863;55.766;37.672;2023-04-30T02:47:47;13.93;;;5.63;;
61905;SDS011;47863;55.766;37.672;2023-04-30T02:50:13;12.10;;;5.22;;
61905;SDS011;47863;55.766;37.672;2023-04-30T02:52:39;10.98;;;5.55;;
61905;SDS011;47863;55.766;37.672;2023-04-30T02:55:05;10.43;;;5.90;;
61905;SDS011;47863;55.766;37.672;2023-04-30T02:57:31;12.32;;;5.43;;
61905;SDS011;47863;55.766;37.672;2023-04-30T02:59:56;12.98;;;6.22;;
61905;SDS011;47863;55.766;37.672;2023-04-30T03:02:22;11.32;;;5.57;;
61905;SDS011;47863;55.766;37.672;2023-04-30T03:04:48;9.40;;;5.32;;
61905;SDS011;47863;55.766;37.672;2023-04-30T03:07:14;11.13;;;5.38;;
61905;SDS011;47863;55.766;37.672;2023-04-30T03:09:40;11.23;;;5.05;;
61905;SDS011;47863;55.766;37.672;2023-04-30T03:12:05;12.35;;;5.35;;
61905;SDS011;47863;55.766;37.672;2023-04-30T03:14:31;13.15;;;5.88;;
61905;SDS011;47863;55.766;37.672;2023-04-30T03:16:56;12.85;;;6.10;;
61905;SDS011;47863;55.766;37.672;2023-04-30T03:19:22;10.73;;;5.07;;
61905;SDS011;47863;55.766;37.672;2023-04-30T03:21:53;11.63;;;5.65;;
61905;SDS011;47863;55.766;37.672;2023-04-30T03:24:19;11.93;;;5.35;;
61905;SDS011;47863;55.766;37.672;2023-04-30T03:26:45;12.63;;;5.68;;
61905;SDS011;47863;55.766;37.672;2023-04-30T03:29:11;13.25;;;6.15;;
61905;SDS011;47863;55.766;37.672;2023-04-30T03:31:37;13.32;;;6.30;;
61905;SDS011;47863;55.766;37.672;2023-04-30T03:34:02;11.55;;;5.25;;
61905;SDS011;47863;55.766;37.672;2023-04-30T03:36:28;11.43;;;5.20;;
61905;SDS011;47863;55.766;37.672;2023-04-30T03:38:54;12.55;;;6.05;;
61905;SDS011;47863;55.766;37.672;2023-04-30T03:41:19;13.18;;;5.53;;
61905;SDS011;47863;55.766;37.672;2023-04-30T03:43:45;8.63;;;4.15;;
61905;SDS011;47863;55.766;37.672;2023-04-30T03:46:11;11.73;;;5.85;;
61905;SDS011;47863;55.766;37.672;2023-04-30T03:48:36;13.23;;;7.28;;
61905;SDS011;47863;55.766;37.672;2023-04-30T03:51:02;9.90;;;6.03;;
61905;SDS011;47863;55.766;37.672;2023-04-30T03:53:28;7.97;;;4.70;;
61905;SDS011;47863;55.766;37.672;2023-04-30T03:55:53;11.40;;;6.38;;
61905;SDS011;47863;55.766;37.672;2023-04-30T03:58:20;10.95;;;5.95;;
61905;SDS011;47863;55.766;37.672;2023-04-30T04:00:46;11.93;;;6.60;;
61905;SDS011;47863;55.766;37.672;2023-04-30T04:03:12;10.45;;;5.68;;
61905;SDS011;47863;55.766;37.672;2023-04-30T04:05:39;14.07;;;7.65;;
61905;SDS011;47863;55.766;37.672;2023-04-30T04:08:05;15.13;;;7.38;;
61905;SDS011;47863;55.766;37.672;2023-04-30T04:10:32;9.90;;;5.13;;
61905;SDS011;47863;55.766;37.672;2023-04-30T04:12:59;14.30;;;7.28;;
61905;SDS011;47863;55.766;37.672;2023-04-30T04:15:25;8.68;;;5.15;;
61905;SDS011;47863;55.766;37.672;2023-04-30T04:17:50;13.07;;;6.22;;
61905;SDS011;47863;55.766;37.672;2023-04-30T04:20:16;12.75;;;6.22;;
61905;SDS011;47863;55.766;37.672;2023-04-30T04:22:42;9.75;;;5.65;;
61905;SDS011;47863;55.766;37.672;2023-04-30T04:25:08;11.35;;;6.18;;
61905;SDS011;47863;55.766;37.672;2023-04-30T04:27:34;9.70;;;5.13;;
61905;SDS011;47863;55.766;37.672;2023-04-30T04:30:01;11.20;;;7.03;;
61905;SDS011;47863;55.766;37.672;2023-04-30T04:32:30;9.27;;;5.10;;
61905;SDS011;47863;55.766;37.672;2023-04-30T04:34:57;7.88;;;4.95;;
61905;SDS011;47863;55.766;37.672;2023-04-30T04:37:23;12.00;;;5.95;;
61905;SDS011;47863;55.766;37.672;2023-04-30T04:39:48;11.60;;;6.38;;
61905;SDS011;47863;55.766;37.672;2023-04-30T04:42:15;9.45;;;6.43;;
61905;SDS011;47863;55.766;37.672;2023-04-30T04:44:41;12.45;;;6.45;;
61905;SDS011;47863;55.766;37.672;2023-04-30T04:47:08;9.95;;;6.05;;
61905;SDS011;47863;55.766;37.672;2023-04-30T04:49:34;10.88;;;6.55;;
61905;SDS011;47863;55.766;37.672;2023-04-30T04:52:00;11.27;;;7.15;;
61905;SDS011;47863;55.766;37.672;2023-04-30T04:54:26;13.70;;;6.25;;
61905;SDS011;47863;55.766;37.672;2023-04-30T04:56:52;12.55;;;7.28;;
61905;SDS011;47863;55.766;37.672;2023-04-30T04:59:17;11.93;;;7.63;;
61905;SDS011;47863;55.766;37.672;2023-04-30T05:01:43;10.95;;;6.15;;
61905;SDS011;47863;55.766;37.672;2023-04-30T05:04:09;13.30;;;8.07;;
61905;SDS011;47863;55.766;37.672;2023-04-30T05:06:35;10.48;;;6.53;;
61905;SDS011;47863;55.766;37.672;2023-04-30T05:09:01;12.57;;;7.05;;
61905;SDS011;47863;55.766;37.672;2023-04-30T05:11:27;13.38;;;7.00;;
61905;SDS011;47863;55.766;37.672;2023-04-30T05:13:53;9.55;;;5.82;;
61905;SDS011;47863;55.766;37.672;2023-04-30T05:16:18;11.30;;;6.82;;
61905;SDS011;47863;55.766;37.672;2023-04-30T05:18:44;10.18;;;6.18;;
61905;SDS011;47863;55.766;37.672;2023-04-30T05:21:09;10.80;;;5.82;;
61905;SDS011;47863;55.766;37.672;2023-04-30T05:23:35;8.27;;;4.85;;
61905;SDS011;47863;55.766;37.672;2023-04-30T05:26:01;11.55;;;6.15;;
61905;SDS011;47863;55.766;37.672;2023-04-30T05:28:27;10.18;;;5.55;;
61905;SDS011;47863;55.766;37.672;2023-04-30T05:30:53;13.18;;;5.50;;
61905;SDS011;47863;55.766;37.672;2023-04-30T05:33:18;8.50;;;4.78;;
61905;SDS011;47863;55.766;37.672;2023-04-30T05:35:44;8.15;;;4.63;;
61905;SDS011;47863;55.766;37.672;2023-04-30T05:38:09;10.57;;;5.20;;
61905;SDS011;47863;55.766;37.672;2023-04-30T05:40:35;8.00;;;4.68;;
61905;SDS011;47863;55.766;37.672;2023-04-30T05:43:01;7.28;;;4.18;;
61905;SDS011;47863;55.766;37.672;2023-04-30T05:45:26;9.38;;;4.55;;
61905;SDS011;47863;55.766;37.672;2023-04-30T05:47:52;8.25;;;4.15;;
61905;SDS011;47863;55.766;37.672;2023-04-30T05:50:18;7.88;;;3.70;;
61905;SDS011;47863;55.766;37.672;2023-04-30T05:52:44;6.60;;;3.97;;
61905;SDS011;47863;55.766;37.672;2023-04-30T05:55:09;8.10;;;3.92;;
61905;SDS011;47863;55.766;37.672;2023-04-30T05:57:35;8.70;;;4.40;;
61905;SDS011;47863;55.766;37.672;2023-04-30T06:00:01;6.70;;;4.20;;
61905;SDS011;47863;55.766;37.672;2023-04-30T06:02:31;7.50;;;4.55;;
61905;SDS011;47863;55.766;37.672;2023-04-30T06:04:56;7.72;;;4.50;;
61905;SDS011;47863;55.766;37.672;2023-04-30T06:07:22;6.10;;;3.65;;
61905;SDS011;47863;55.766;37.672;2023-04-30T06:09:47;7.35;;;4.28;;
61905;SDS011;47863;55.766;37.672;2023-04-30T06:12:13;6.03;;;3.67;;
61905;SDS011;47863;55.766;37.672;2023-04-30T06:14:39;5.40;;;3.70;;
61905;SDS011;47863;55.766;37.672;2023-04-30T06:17:09;6.05;;;3.30;;
61905;SDS011;47863;55.766;37.672;2023-04-30T06:19:34;8.38;;;3.22;;
61905;SDS011;47863;55.766;37.672;2023-04-30T06:22:00;5.90;;;3.25;;
61905;SDS011;47863;55.766;37.672;2023-04-30T06:24:25;5.22;;;2.92;;
61905;SDS011;47863;55.766;37.672;2023-04-30T06:26:51;5.40;;;3.20;;
61905;SDS011;47863;55.766;37.672;2023-04-30T06:29:17;5.65;;;2.58;;
61905;SDS011;47863;55.766;37.672;2023-04-30T06:31:42;5.32;;;3.03;;
61905;SDS011;47863;55.766;37.672;2023-04-30T06:34:08;7.95;;;4.07;;
61905;SDS011;47863;55.766;37.672;2023-04-30T06:36:33;9.48;;;3.90;;
61905;SDS011;47863;55.766;37.672;2023-04-30T06:38:59;4.72;;;3.00;;
61905;SDS011;47863;55.766;37.672;2023-04-30T06:41:25;5.00;;;2.97;;
61905;SDS011;47863;55.766;37.672;2023-04-30T06:43:51;4.07;;;2.47;;
61905;SDS011;47863;55.766;37.672;2023-04-30T06:46:16;5.82;;;3.22;;
61905;SDS011;47863;55.766;37.672;2023-04-30T06:48:42;6.07;;;2.90;;
61905;SDS011;47863;55.766;37.672;2023-04-30T06:51:07;5.30;;;2.83;;
61905;SDS011;47863;55.766;37.672;2023-04-30T06:53:33;4.63;;;2.58;;
61905;SDS011;47863;55.766;37.672;2023-04-30T06:55:59;3.90;;;2.13;;
61905;SDS011;47863;55.766;37.672;2023-04-30T06:58:24;6.38;;;2.78;;
61905;SDS011;47863;55.766;37.672;2023-04-30T07:00:50;4.53;;;2.58;;
61905;SDS011;47863;55.766;37.672;2023-04-30T07:03:16;4.22;;;2.80;;
61905;SDS011;47863;55.766;37.672;2023-04-30T07:05:42;4.18;;;2.50;;
61905;SDS011;47863;55.766;37.672;2023-04-30T07:08:08;4.10;;;2.80;;
61905;SDS011;47863;55.766;37.672;2023-04-30T07:10:33;3.97;;;2.67;;
61905;SDS011;47863;55.766;37.672;2023-04-30T07:12:59;7.55;;;2.60;;
61905;SDS011;47863;55.766;37.672;2023-04-30T07:15:25;6.15;;;3.70;;
61905;SDS011;47863;55.766;37.672;2023-04-30T07:17:50;6.22;;;2.35;;
61905;SDS011;47863;55.766;37.672;2023-04-30T07:20:16;4.18;;;2.38;;
61905;SDS011;47863;55.766;37.672;2023-04-30T07:22:42;3.97;;;2.25;;
61905;SDS011;47863;55.766;37.672;2023-04-30T07:25:11;4.50;;;2.38;;
61905;SDS011;47863;55.766;37.672;2023-04-30T07:27:37;5.03;;;2.35;;
61905;SDS011;47863;55.766;37.672;2023-04-30T07:30:03;3.72;;;2.10;;
61905;SDS011;47863;55.766;37.672;2023-04-30T07:32:33;4.50;;;2.58;;
61905;SDS011;47863;55.766;37.672;2023-04-30T07:34:59;3.40;;;2.15;;
61905;SDS011;47863;55.766;37.672;2023-04-30T07:37:24;4.22;;;2.22;;
61905;SDS011;47863;55.766;37.672;2023-04-30T07:39:50;3.95;;;1.75;;
61905;SDS011;47863;55.766;37.672;2023-04-30T07:42:15;3.10;;;2.03;;
61905;SDS011;47863;55.766;37.672;2023-04-30T07:44:41;3.97;;;1.85;;
61905;SDS011;47863;55.766;37.672;2023-04-30T07:47:07;3.95;;;1.70;;
61905;SDS011;47863;55.766;37.672;2023-04-30T07:49:33;4.32;;;1.60;;
61905;SDS011;47863;55.766;37.672;2023-04-30T07:51:59;3.53;;;1.70;;
61905;SDS011;47863;55.766;37.672;2023-04-30T07:54:25;3.85;;;1.63;;
61905;SDS011;47863;55.766;37.672;2023-04-30T07:56:51;3.30;;;1.85;;
61905;SDS011;47863;55.766;37.672;2023-04-30T07:59:17;3.05;;;1.60;;
61905;SDS011;47863;55.766;37.672;2023-04-30T08:01:43;3.05;;;1.45;;
61905;SDS011;47863;55.766;37.672;2023-04-30T08:04:09;3.00;;;1.40;;
61905;SDS011;47863;55.766;37.672;2023-04-30T08:06:35;3.08;;;1.52;;
61905;SDS011;47863;55.766;37.672;2023-04-30T08:09:01;1.90;;;1.40;;
61905;SDS011;47863;55.766;37.672;2023-04-30T08:11:26;1.70;;;1.20;;
61905;SDS011;47863;55.766;37.672;2023-04-30T08:13:52;4.10;;;1.40;;
61905;SDS011;47863;55.766;37.672;2023-04-30T08:16:18;2.55;;;1.48;;
61905;SDS011;47863;55.766;37.672;2023-04-30T08:18:43;3.47;;;1.70;;
61905;SDS011;47863;55.766;37.672;2023-04-30T08:21:13;2.20;;;1.27;;
61905;SDS011;47863;55.766;37.672;2023-04-30T08:23:40;3.65;;;1.40;;
61905;SDS011;47863;55.766;37.672;2023-04-30T08:26:06;4.20;;;1.85;;
61905;SDS011;47863;55.766;37.672;2023-04-30T08:28:31;4.00;;;1.50;;
61905;SDS011;47863;55.766;37.672;2023-04-30T08:30:57;2.70;;;1.33;;
61905;SDS011;47863;55.766;37.672;2023-04-30T08:33:22;2.63;;;1.33;;
61905;SDS011;47863;55.766;37.672;2023-04-30T08:35:48;3.08;;;1.80;;
61905;SDS011;47863;55.766;37.672;2023-04-30T08:38:14;4.53;;;1.35;;
61905;SDS011;47863;55.766;37.672;2023-04-30T08:40:39;3.38;;;1.58;;
61905;SDS011;47863;55.766;37.672;2023-04-30T08:43:06;4.55;;;1.90;;
61905;SDS011;47863;55.766;37.672;2023-04-30T08:45:33;3.97;;;1.55;;
61905;SDS011;47863;55.766;37.672;2023-04-30T08:48:02;1.77;;;0.93;;
61905;SDS011;47863;55.766;37.672;2023-04-30T08:50:31;6.82;;;1.40;;
61905;SDS011;47863;55.766;37.672;2023-04-30T08:52:59;3.97;;;1.50;;
61905;SDS011;47863;55.766;37.672;2023-04-30T08:55:26;5.00;;;1.67;;
61905;SDS011;47863;55.766;37.672;2023-04-30T08:57:52;2.28;;;1.30;;
61905;SDS011;47863;55.766;37.672;2023-04-30T09:00:17;2.78;;;1.45;;
61905;SDS011;47863;55.766;37.672;2023-04-30T09:02:43;2.85;;;1.50;;
61905;SDS011;47863;55.766;37.672;2023-04-30T09:05:12;3.33;;;1.40;;
61905;SDS011;47863;55.766;37.672;2023-04-30T09:07:42;2.88;;;1.40;;
61905;SDS011;47863;55.766;37.672;2023-04-30T09:10:19;2.55;;;1.50;;
61905;SDS011;47863;55.766;37.672;2023-04-30T09:15:26;2.22;;;1.10;;
61905;SDS011;47863;55.766;37.672;2023-04-30T09:18:12;2.17;;;1.13;;
61905;SDS011;47863;55.766;37.672;2023-04-30T09:21:00;1.92;;;1.15;;
61905;SDS011;47863;55.766;37.672;2023-04-30T09:23:27;2.35;;;1.35;;
61905;SDS011;47863;55.766;37.672;2023-04-30T09:25:53;2.80;;;1.25;;
61905;SDS011;47863;55.766;37.672;2023-04-30T09:28:19;3.05;;;1.70;;
61905;SDS011;47863;55.766;37.672;2023-04-30T09:30:48;16.67;;;2.85;;
61905;SDS011;47863;55.766;37.672;2023-04-30T09:33:15;2.83;;;1.63;;
61905;SDS011;47863;55.766;37.672;2023-04-30T09:35:41;3.10;;;1.33;;
61905;SDS011;47863;55.766;37.672;2023-04-30T09:38:06;2.47;;;1.20;;
61905;SDS011;47863;55.766;37.672;2023-04-30T09:40:36;2.13;;;1.10;;
61905;SDS011;47863;55.766;37.672;2023-04-30T09:43:04;3.58;;;1.40;;
61905;SDS011;47863;55.766;37.672;2023-04-30T09:45:43;1.90;;;1.08;;
61905;SDS011;47863;55.766;37.672;2023-04-30T09:48:14;1.67;;;1.13;;
61905;SDS011;47863;55.766;37.672;2023-04-30T09:50:40;2.15;;;1.10;;
61905;SDS011;47863;55.766;37.672;2023-04-30T09:53:09;2.45;;;0.95;;
61905;SDS011;47863;55.766;37.672;2023-04-30T09:55:43;2.13;;;1.10;;
61905;SDS011;47863;55.766;37.672;2023-04-30T09:58:10;2.30;;;0.90;;
61905;SDS011;47863;55.766;37.672;2023-04-30T10:00:37;1.85;;;0.90;;
61905;SDS011;47863;55.766;37.672;2023-04-30T10:03:05;3.35;;;1.33;;
61905;SDS011;47863;55.766;37.672;2023-04-30T10:08:08;4.07;;;1.30;;
61905;SDS011;47863;55.766;37.672;2023-04-30T10:10:37;2.72;;;1.10;;
61905;SDS011;47863;55.766;37.672;2023-04-30T10:13:09;1.70;;;1.20;;
61905;SDS011;47863;55.766;37.672;2023-04-30T10:15:42;2.20;;;1.20;;
61905;SDS011;47863;55.766;37.672;2023-04-30T10:18:14;3.63;;;0.98;;
61905;SDS011;47863;55.766;37.672;2023-04-30T10:20:43;2.92;;;1.10;;
61905;SDS011;47863;55.766;37.672;2023-04-30T10:23:13;3.28;;;1.20;;
61905;SDS011;47863;55.766;37.672;2023-04-30T10:25:39;10.75;;;5.50;;
61905;SDS011;47863;55.766;37.672;2023-04-30T10:28:07;3.28;;;1.50;;
61905;SDS011;47863;55.766;37.672;2023-04-30T10:30:33;2.58;;;1.40;;
61905;SDS011;47863;55.766;37.672;2023-04-30T10:33:05;2.22;;;1.20;;
61905;SDS011;47863;55.766;37.672;2023-04-30T10:35:36;1.67;;;1.00;;
61905;SDS011;47863;55.766;37.672;2023-04-30T10:38:12;1.88;;;0.95;;
61905;SDS011;47863;55.766;37.672;2023-04-30T10:40:45;3.00;;;1.40;;
61905;SDS011;47863;55.766;37.672;2023-04-30T10:43:12;3.22;;;1.38;;
61905;SDS011;47863;55.766;37.672;2023-04-30T10:45:40;3.25;;;1.10;;
61905;SDS011;47863;55.766;37.672;2023-04-30T10:48:08;2.40;;;0.93;;
61905;SDS011;47863;55.766;37.672;2023-04-30T10:50:43;2.15;;;1.25;;
61905;SDS011;47863;55.766;37.672;2023-04-30T10:53:16;3.15;;;1.50;;
61905;SDS011;47863;55.766;37.672;2023-04-30T10:55:45;2.60;;;1.40;;
61905;SDS011;47863;55.766;37.672;2023-04-30T10:58:23;2.50;;;0.90;;
61905;SDS011;47863;55.766;37.672;2023-04-30T11:01:03;2.30;;;1.15;;
61905;SDS011;47863;55.766;37.672;2023-04-30T11:03:31;3.25;;;1.10;;
61905;SDS011;47863;55.766;37.672;2023-04-30T11:05:59;2.15;;;1.00;;
61905;SDS011;47863;55.766;37.672;2023-04-30T11:08:32;4.25;;;1.40;;
61905;SDS011;47863;55.766;37.672;2023-04-30T11:11:01;5.60;;;1.45;;
61905;SDS011;47863;55.766;37.672;2023-04-30T11:13:44;5.15;;;1.50;;
61905;SDS011;47863;55.766;37.672;2023-04-30T11:16:12;3.15;;;1.35;;
61905;SDS011;47863;55.766;37.672;2023-04-30T11:18:41;2.33;;;1.08;;
61905;SDS011;47863;55.766;37.672;2023-04-30T11:21:08;3.38;;;1.25;;
61905;SDS011;47863;55.766;37.672;2023-04-30T11:23:35;3.15;;;1.23;;
61905;SDS011;47863;55.766;37.672;2023-04-30T11:26:01;2.38;;;1.27;;
61905;SDS011;47863;55.766;37.672;2023-04-30T11:28:27;9.10;;;4.38;;
61905;SDS011;47863;55.766;37.672;2023-04-30T11:30:56;5.32;;;2.38;;
61905;SDS011;47863;55.766;37.672;2023-04-30T11:33:26;2.80;;;1.60;;
61905;SDS011;47863;55.766;37.672;2023-04-30T11:35:54;4.93;;;1.60;;
61905;SDS011;47863;55.766;37.672;2023-04-30T11:38:21;3.00;;;1.40;;
61905;SDS011;47863;55.766;37.672;2023-04-30T11:40:51;5.90;;;1.90;;
61905;SDS011;47863;55.766;37.672;2023-04-30T11:43:21;2.45;;;1.40;;
61905;SDS011;47863;55.766;37.672;2023-04-30T11:48:35;1.88;;;1.10;;
61905;SDS011;47863;55.766;37.672;2023-04-30T11:51:02;2.20;;;1.20;;
61905;SDS011;47863;55.766;37.672;2023-04-30T11:53:29;2.95;;;1.17;;
61905;SDS011;47863;55.766;37.672;2023-04-30T11:55:55;1.48;;;0.98;;
61905;SDS011;47863;55.766;37.672;2023-04-30T11:58:21;2.13;;;1.00;;
61905;SDS011;47863;55.766;37.672;2023-04-30T12:00:47;2.28;;;1.15;;
61905;SDS011;47863;55.766;37.672;2023-04-30T12:03:14;3.95;;;1.13;;
61905;SDS011;47863;55.766;37.672;2023-04-30T12:05:41;2.10;;;1.02;;
61905;SDS011;47863;55.766;37.672;2023-04-30T12:08:07;2.25;;;1.23;;
61905;SDS011;47863;55.766;37.672;2023-04-30T12:10:36;2.50;;;1.30;;
61905;SDS011;47863;55.766;37.672;2023-04-30T12:13:02;1.90;;;1.02;;
61905;SDS011;47863;55.766;37.672;2023-04-30T12:15:27;2.92;;;1.30;;
61905;SDS011;47863;55.766;37.672;2023-04-30T12:17:55;2.42;;;1.40;;
61905;SDS011;47863;55.766;37.672;2023-04-30T12:20:23;2.15;;;1.10;;
61905;SDS011;47863;55.766;37.672;2023-04-30T12:22:54;4.88;;;1.83;;
61905;SDS011;47863;55.766;37.672;2023-04-30T12:25:20;2.78;;;1.30;;
61905;SDS011;47863;55.766;37.672;2023-04-30T12:27:48;3.28;;;1.35;;
61905;SDS011;47863;55.766;37.672;2023-04-30T12:30:18;3.15;;;1.60;;
61905;SDS011;47863;55.766;37.672;2023-04-30T12:32:48;3.42;;;1.00;;
61905;SDS011;47863;55.766;37.672;2023-04-30T12:35:15;3.40;;;1.27;;
61905;SDS011;47863;55.766;37.672;2023-04-30T12:40:12;7.35;;;1.83;;
61905;SDS011;47863;55.766;37.672;2023-04-30T12:42:40;2.88;;;1.20;;
61905;SDS011;47863;55.766;37.672;2023-04-30T12:45:07;2.88;;;1.50;;
61905;SDS011;47863;55.766;37.672;2023-04-30T12:47:36;5.03;;;2.50;;
61905;SDS011;47863;55.766;37.672;2023-04-30T12:50:08;6.57;;;1.42;;
61905;SDS011;47863;55.766;37.672;2023-04-30T12:52:37;3.20;;;1.50;;
61905;SDS011;47863;55.766;37.672;2023-04-30T12:55:13;2.72;;;1.60;;
61905;SDS011;47863;55.766;37.672;2023-04-30T12:57:40;2.40;;;1.08;;
61905;SDS011;47863;55.766;37.672;2023-04-30T13:00:05;2.15;;;1.13;;
61905;SDS011;47863;55.766;37.672;2023-04-30T13:02:32;2.80;;;1.27;;
61905;SDS011;47863;55.766;37.672;2023-04-30T13:04:58;2.75;;;1.20;;
61905;SDS011;47863;55.766;37.672;2023-04-30T13:07:24;4.03;;;1.30;;
61905;SDS011;47863;55.766;37.672;2023-04-30T13:09:49;3.22;;;1.45;;
61905;SDS011;47863;55.766;37.672;2023-04-30T13:12:15;3.15;;;1.30;;
61905;SDS011;47863;55.766;37.672;2023-04-30T13:14:41;4.07;;;1.38;;
61905;SDS011;47863;55.766;37.672;2023-04-30T13:17:06;2.78;;;1.30;;
61905;SDS011;47863;55.766;37.672;2023-04-30T13:19:33;2.85;;;1.27;;
61905;SDS011;47863;55.766;37.672;2023-04-30T13:21:59;3.97;;;1.52;;
61905;SDS011;47863;55.766;37.672;2023-04-30T13:24:26;3.63;;;1.67;;
61905;SDS011;47863;55.766;37.672;2023-04-30T13:26:52;2.28;;;1.15;;
61905;SDS011;47863;55.766;37.672;2023-04-30T13:29:17;3.13;;;1.58;;
61905;SDS011;47863;55.766;37.672;2023-04-30T13:31:45;2.67;;;1.58;;
61905;SDS011;47863;55.766;37.672;2023-04-30T13:34:13;4.43;;;1.75;;
61905;SDS011;47863;55.766;37.672;2023-04-30T13:36:40;3.58;;;1.50;;
61905;SDS011;47863;55.766;37.672;2023-04-30T13:39:05;2.83;;;1.50;;
61905;SDS011;47863;55.766;37.672;2023-04-30T13:41:31;3.17;;;1.60;;
61905;SDS011;47863;55.766;37.672;2023-04-30T13:43:57;3.22;;;1.52;;
61905;SDS011;47863;55.766;37.672;2023-04-30T13:46:24;3.70;;;1.90;;
61905;SDS011;47863;55.766;37.672;2023-04-30T13:48:50;3.75;;;1.75;;
61905;SDS011;47863;55.766;37.672;2023-04-30T13:51:17;3.28;;;1.40;;
61905;SDS011;47863;55.766;37.672;2023-04-30T13:53:43;5.97;;;1.80;;
61905;SDS011;47863;55.766;37.672;2023-04-30T13:56:10;4.90;;;1.75;;
61905;SDS011;47863;55.766;37.672;2023-04-30T13:58:35;6.10;;;2.13;;
61905;SDS011;47863;55.766;37.672;2023-04-30T14:01:02;3.75;;;1.90;;
61905;SDS011;47863;55.766;37.672;2023-04-30T14:03:27;5.95;;;2.08;;
61905;SDS011;47863;55.766;37.672;2023-04-30T14:05:53;4.22;;;1.60;;
61905;SDS011;47863;55.766;37.672;2023-04-30T14:08:19;4.60;;;1.92;;
61905;SDS011;47863;55.766;37.672;2023-04-30T14:10:44;3.25;;;1.55;;
61905;SDS011;47863;55.766;37.672;2023-04-30T14:13:10;4.85;;;1.73;;
61905;SDS011;47863;55.766;37.672;2023-04-30T14:15:36;3.53;;;1.48;;
61905;SDS011;47863;55.766;37.672;2023-04-30T14:18:02;3.92;;;1.90;;
61905;SDS011;47863;55.766;37.672;2023-04-30T14:20:28;3.92;;;1.52;;
61905;SDS011;47863;55.766;37.672;2023-04-30T14:22:54;3.60;;;1.83;;
61905;SDS011;47863;55.766;37.672;2023-04-30T14:25:19;4.10;;;2.20;;
61905;SDS011;47863;55.766;37.672;2023-04-30T14:27:46;5.35;;;2.22;;
61905;SDS011;47863;55.766;37.672;2023-04-30T14:30:11;4.75;;;1.23;;
61905;SDS011;47863;55.766;37.672;2023-04-30T14:32:37;2.95;;;1.50;;
61905;SDS011;47863;55.766;37.672;2023-04-30T14:35:03;3.70;;;1.52;;
61905;SDS011;47863;55.766;37.672;2023-04-30T14:37:31;4.70;;;1.67;;
61905;SDS011;47863;55.766;37.672;2023-04-30T14:39:57;3.28;;;1.40;;
61905;SDS011;47863;55.766;37.672;2023-04-30T14:42:24;3.78;;;1.80;;
61905;SDS011;47863;55.766;37.672;2023-04-30T14:44:50;3.65;;;1.75;;
61905;SDS011;47863;55.766;37.672;2023-04-30T14:47:17;4.07;;;1.77;;
61905;SDS011;47863;55.766;37.672;2023-04-30T14:49:44;3.00;;;1.40;;
61905;SDS011;47863;55.766;37.672;2023-04-30T14:52:09;3.63;;;1.60;;
61905;SDS011;47863;55.766;37.672;2023-04-30T14:54:35;4.75;;;1.70;;
61905;SDS011;47863;55.766;37.672;2023-04-30T14:57:01;3.15;;;1.58;;
61905;SDS011;47863;55.766;37.672;2023-04-30T14:59:28;5.22;;;2.10;;